createdAt,value
2023-03-11T00:13:01.925Z,9
2023-03-11T00:42:22.911Z,7
2023-03-11T01:11:40.527Z,7
2023-03-11T01:40:56.279Z,7
2023-03-11T02:10:10.303Z,8
2023-03-11T02:39:31.227Z,6
2023-03-11T03:08:48.076Z,6
2023-03-11T03:37:59.693Z,6
2023-03-11T04:07:14.576Z,6
2023-03-11T04:36:30.666Z,7
2023-03-11T05:05:45.373Z,8
2023-03-11T05:34:58.634Z,7
2023-03-11T06:04:12.457Z,14
2023-03-11T06:33:16.376Z,9
2023-03-11T07:02:32.370Z,15
2023-03-11T07:31:50.823Z,13
2023-03-11T08:01:04.751Z,9
2023-03-11T08:30:21.320Z,7
2023-03-11T08:59:37.773Z,7
2023-03-11T09:28:54.597Z,6
2023-03-11T09:58:13.572Z,9
2023-03-11T10:27:41.583Z,8
2023-03-11T10:56:37.259Z,4
2023-03-11T11:26:01.281Z,6
2023-03-11T11:55:42.649Z,5
2023-03-11T12:25:03.390Z,4
2023-03-11T12:54:17.794Z,6
2023-03-11T13:23:23.520Z,6
2023-03-11T13:52:40.242Z,6
2023-03-11T14:21:50.903Z,7
2023-03-11T14:51:09.653Z,7
2023-03-11T15:20:29.375Z,6
2023-03-11T15:49:40.047Z,7
2023-03-11T16:18:53.945Z,8
2023-03-11T16:47:58.585Z,9
2023-03-11T17:17:10.598Z,9
2023-03-11T17:46:25.218Z,9
2023-03-11T18:15:33.966Z,15
2023-03-11T18:44:48.236Z,14
2023-03-11T19:13:59.975Z,21
2023-03-11T19:43:11.449Z,26
2023-03-11T20:12:23.960Z,25
2023-03-11T20:41:32.683Z,23
2023-03-11T21:10:37.212Z,28
2023-03-11T21:39:47.858Z,21
2023-03-11T22:09:01.386Z,21
2023-03-11T22:37:58.813Z,14
2023-03-11T23:07:19.099Z,12
2023-03-11T23:36:38.280Z,12
